createdAt,value
2022-09-03T00:02:27.377Z,19.64
2022-09-03T00:05:16.050Z,19.55
2022-09-03T00:08:10.099Z,19.56
2022-09-03T00:10:53.362Z,19.53
2022-09-03T00:13:36.319Z,19.52
2022-09-03T00:16:10.451Z,19.43
2022-09-03T00:18:46.284Z,19.38
2022-09-03T00:21:39.353Z,19.37
2022-09-03T00:24:13.986Z,19.46
2022-09-03T00:26:52.090Z,19.47
2022-09-03T00:29:25.522Z,19.40
2022-09-03T00:32:02.368Z,19.34
2022-09-03T00:34:35.487Z,19.33
2022-09-03T00:37:03.786Z,19.36
2022-09-03T00:39:32.037Z,19.37
2022-09-03T00:42:28.439Z,19.46
2022-09-03T00:45:18.642Z,19.44
2022-09-03T00:48:07.987Z,19.51
2022-09-03T00:51:02.043Z,19.48
2022-09-03T00:53:52.179Z,19.47
2022-09-03T00:56:41.084Z,19.53
2022-09-03T00:59:31.441Z,19.54
2022-09-03T01:02:14.837Z,19.53
2022-09-03T01:04:54.931Z,19.52
2022-09-03T01:07:23.079Z,19.50
2022-09-03T01:10:04.533Z,19.49
2022-09-03T01:12:36.101Z,19.54
2022-09-03T01:15:21.472Z,19.63
2022-09-03T01:18:06.592Z,19.70
2022-09-03T01:20:58.060Z,19.79
2022-09-03T01:23:54.707Z,19.85
2022-09-03T01:26:35.088Z,19.95
2022-09-03T01:29:34.828Z,20.04
2022-09-03T01:32:30.679Z,20.15
2022-09-03T01:35:19.328Z,20.27
2022-09-03T01:38:05.948Z,20.33
2022-09-03T01:40:47.968Z,20.32
2022-09-03T01:43:36.706Z,20.32
2022-09-03T01:46:13.899Z,20.31
2022-09-03T01:48:56.223Z,20.29
2022-09-03T01:51:29.535Z,20.25
2022-09-03T01:53:58.100Z,20.19
2022-09-03T01:56:38.088Z,20.14
2022-09-03T01:59:23.950Z,20.09
2022-09-03T02:01:59.892Z,20.15
2022-09-03T02:04:28.829Z,20.20
2022-09-03T02:07:00.581Z,20.27
2022-09-03T02:09:32.644Z,20.31
2022-09-03T02:12:11.485Z,20.30
2022-09-03T02:14:40.197Z,20.29
2022-09-03T02:17:09.162Z,20.26
2022-09-03T02:19:38.250Z,20.22
2022-09-03T02:22:09.332Z,20.19
2022-09-03T02:24:38.363Z,20.18
2022-09-03T02:27:06.685Z,20.16
2022-09-03T02:29:35.021Z,20.15
2022-09-03T02:32:03.528Z,20.16
2022-09-03T02:34:31.704Z,20.16
2022-09-03T02:37:00.056Z,20.01
2022-09-03T02:39:29.034Z,19.74
2022-09-03T02:41:58.911Z,19.52
2022-09-03T02:44:33.833Z,19.47
2022-09-03T02:47:06.276Z,19.53
2022-09-03T02:49:37.785Z,19.62
2022-09-03T02:52:12.322Z,19.68
2022-09-03T02:54:40.920Z,19.82
2022-09-03T02:57:11.615Z,19.90
2022-09-03T02:59:41.597Z,20.02
2022-09-03T03:02:10.044Z,19.90
2022-09-03T03:04:41.674Z,19.72
2022-09-03T03:07:09.931Z,19.60
2022-09-03T03:09:38.046Z,19.46
2022-09-03T03:12:07.250Z,19.34
2022-09-03T03:14:35.419Z,19.28
2022-09-03T03:17:03.939Z,19.28
2022-09-03T03:19:32.131Z,19.28
2022-09-03T03:22:00.480Z,19.37
2022-09-03T03:24:28.658Z,19.20
2022-09-03T03:26:58.315Z,19.10
2022-09-03T03:29:26.760Z,19.09
2022-09-03T03:31:58.163Z,19.08
2022-09-03T03:34:26.391Z,18.99
2022-09-03T03:36:56.870Z,18.94
2022-09-03T03:39:25.068Z,18.96
2022-09-03T03:41:53.745Z,18.94
2022-09-03T03:44:21.941Z,18.99
2022-09-03T03:46:50.136Z,19.03
2022-09-03T03:49:18.319Z,19.07
2022-09-03T03:51:46.516Z,19.09
2022-09-03T03:54:17.547Z,19.10
2022-09-03T03:56:55.252Z,19.12
2022-09-03T03:59:24.188Z,19.26
2022-09-03T04:01:55.027Z,19.37
2022-09-03T04:04:23.343Z,19.39
2022-09-03T04:06:53.875Z,19.32
2022-09-03T04:09:22.306Z,19.25
2022-09-03T04:11:53.669Z,19.17
2022-09-03T04:14:22.552Z,19.01
2022-09-03T04:16:54.872Z,18.79
2022-09-03T04:19:26.591Z,18.73
2022-09-03T04:21:54.778Z,18.53
2022-09-03T04:24:23.948Z,18.48
2022-09-03T04:26:54.081Z,18.40
2022-09-03T04:29:22.250Z,18.37
2022-09-03T04:32:09.023Z,18.37
2022-09-03T04:34:37.215Z,18.35
2022-09-03T04:37:05.500Z,18.37
2022-09-03T04:39:33.696Z,18.37
2022-09-03T04:42:04.540Z,18.41
2022-09-03T04:44:32.753Z,18.47
2022-09-03T04:47:00.950Z,18.62
2022-09-03T04:49:29.101Z,18.67
2022-09-03T04:51:57.588Z,18.34
2022-09-03T04:54:29.260Z,18.14
2022-09-03T04:56:58.310Z,17.99
2022-09-03T04:59:29.287Z,18.04
2022-09-03T05:01:57.866Z,18.14
2022-09-03T05:04:26.156Z,18.28
2022-09-03T05:06:54.580Z,18.37
2022-09-03T05:09:22.814Z,18.53
2022-09-03T05:11:51.027Z,18.66
2022-09-03T05:14:19.387Z,18.82
2022-09-03T05:16:52.992Z,18.96
2022-09-03T05:19:21.657Z,19.07
2022-09-03T05:21:52.671Z,19.18
2022-09-03T05:24:20.966Z,19.27
2022-09-03T05:26:49.225Z,19.33
2022-09-03T05:29:19.636Z,19.40
2022-09-03T05:31:47.917Z,19.41
2022-09-03T05:34:16.354Z,19.42
2022-09-03T05:36:49.108Z,19.45
2022-09-03T05:39:17.337Z,19.47
2022-09-03T05:41:45.816Z,19.48
2022-09-03T05:44:14.513Z,19.49
2022-09-03T05:46:42.732Z,19.47
2022-09-03T05:49:11.903Z,19.41
2022-09-03T05:51:40.315Z,19.44
2022-09-03T05:54:08.907Z,19.53
2022-09-03T05:56:40.237Z,19.71
2022-09-03T05:59:10.370Z,19.82
2022-09-03T06:01:51.587Z,19.98
2022-09-03T06:04:21.526Z,20.04
2022-09-03T06:06:52.405Z,20.19
2022-09-03T06:09:23.332Z,20.31
2022-09-03T06:11:53.912Z,20.57
2022-09-03T06:14:23.825Z,20.70
2022-09-03T06:16:53.073Z,20.88
2022-09-03T06:19:21.574Z,21.06
2022-09-03T06:21:49.918Z,21.28
2022-09-03T06:24:28.100Z,21.55
2022-09-03T06:26:57.763Z,21.82
2022-09-03T06:29:26.878Z,22.03
2022-09-03T06:31:55.981Z,22.27
2022-09-03T06:34:29.534Z,22.59
2022-09-03T06:36:58.397Z,22.82
2022-09-03T06:39:27.180Z,22.94
2022-09-03T06:41:55.542Z,23.08
2022-09-03T06:44:34.587Z,23.27
2022-09-03T06:47:02.815Z,23.61
2022-09-03T06:49:34.028Z,24.10
2022-09-03T06:52:02.412Z,24.48
2022-09-03T06:54:30.666Z,24.64
2022-09-03T06:56:58.858Z,24.69
2022-09-03T06:59:28.370Z,24.80
2022-09-03T07:01:58.248Z,24.57
2022-09-03T07:04:27.580Z,24.61
2022-09-03T07:06:57.495Z,24.87
2022-09-03T07:09:26.075Z,25.08
2022-09-03T07:11:55.924Z,25.24
2022-09-03T07:14:24.624Z,25.52
2022-09-03T07:16:52.896Z,25.69
2022-09-03T07:19:21.143Z,25.60
2022-09-03T07:21:50.798Z,25.62
2022-09-03T07:24:22.092Z,25.29
2022-09-03T07:26:50.994Z,24.92
2022-09-03T07:29:23.381Z,24.95
2022-09-03T07:31:52.859Z,25.70
2022-09-03T07:34:25.335Z,27.22
2022-09-03T07:36:54.301Z,28.69
2022-09-03T07:39:22.836Z,29.14
2022-09-03T07:41:51.244Z,29.09
2022-09-03T07:44:20.399Z,29.70
2022-09-03T07:46:51.471Z,30.49
2022-09-03T07:49:21.801Z,31.52
2022-09-03T07:51:52.364Z,30.79
2022-09-03T07:54:21.978Z,29.63
2022-09-03T07:56:50.194Z,28.59
2022-09-03T07:59:20.439Z,27.21
2022-09-03T08:01:51.167Z,26.57
2022-09-03T08:04:19.368Z,26.49
2022-09-03T08:06:48.306Z,26.34
2022-09-03T08:09:16.633Z,25.98
2022-09-03T08:11:44.844Z,25.75
2022-09-03T08:14:14.280Z,25.79
2022-09-03T08:16:49.894Z,25.82
2022-09-03T08:19:19.350Z,25.77
2022-09-03T08:21:48.427Z,25.66
2022-09-03T08:24:21.917Z,26.52
2022-09-03T08:26:52.429Z,27.17
2022-09-03T08:29:24.326Z,27.34
2022-09-03T08:31:52.598Z,27.97
2022-09-03T08:34:21.395Z,28.20
2022-09-03T08:36:50.388Z,28.34
2022-09-03T08:39:18.789Z,28.54
2022-09-03T08:41:53.263Z,28.45
2022-09-03T08:44:34.695Z,28.44
2022-09-03T08:47:39.676Z,28.26
2022-09-03T08:50:18.201Z,28.30
2022-09-03T08:52:50.638Z,28.38
2022-09-03T08:55:31.831Z,28.24
2022-09-03T08:58:20.960Z,27.95
2022-09-03T09:01:03.842Z,27.85
2022-09-03T09:03:39.610Z,27.82
2022-09-03T09:06:24.934Z,27.99
2022-09-03T09:08:57.695Z,28.36
2022-09-03T09:11:45.146Z,28.67
2022-09-03T09:14:27.099Z,28.60
2022-09-03T09:17:33.750Z,28.00
2022-09-03T09:20:20.243Z,27.65
2022-09-03T09:23:13.562Z,27.75
2022-09-03T09:25:50.131Z,28.18
2022-09-03T09:28:24.370Z,27.90
2022-09-03T09:30:56.794Z,27.72
2022-09-03T09:33:25.662Z,27.17
2022-09-03T09:35:53.910Z,27.18
2022-09-03T09:38:36.380Z,27.28
2022-09-03T09:41:12.190Z,27.06
2022-09-03T09:43:40.724Z,27.12
2022-09-03T09:46:21.540Z,27.06
2022-09-03T09:48:54.808Z,26.91
2022-09-03T09:51:31.822Z,27.09
2022-09-03T09:54:11.680Z,27.46
2022-09-03T09:56:42.307Z,27.43
2022-09-03T09:59:15.413Z,27.56
2022-09-03T10:01:45.048Z,28.02
2022-09-03T10:04:25.700Z,28.25
2022-09-03T10:07:19.678Z,28.45
2022-09-03T10:10:29.208Z,28.67
2022-09-03T10:13:09.470Z,28.86
2022-09-03T10:15:51.160Z,29.00
2022-09-03T10:18:48.095Z,28.74
2022-09-03T10:21:36.717Z,28.47
2022-09-03T10:24:41.049Z,28.53
2022-09-03T10:27:12.348Z,28.86
2022-09-03T10:29:41.826Z,29.07
2022-09-03T10:32:24.124Z,29.31
2022-09-03T10:35:28.350Z,29.03
2022-09-03T10:38:10.448Z,28.55
2022-09-03T10:40:56.617Z,28.63
2022-09-03T10:43:44.372Z,28.88
2022-09-03T10:46:23.414Z,28.87
2022-09-03T10:49:18.012Z,28.27
2022-09-03T10:52:01.315Z,27.90
2022-09-03T10:54:47.997Z,27.80
2022-09-03T10:57:22.765Z,27.74
2022-09-03T10:59:54.087Z,27.82
2022-09-03T11:02:44.007Z,28.19
2022-09-03T11:05:43.837Z,28.35
2022-09-03T11:08:23.666Z,28.49
2022-09-03T11:10:57.332Z,28.69
2022-09-03T11:13:38.739Z,28.96
2022-09-03T11:16:20.119Z,28.79
2022-09-03T11:18:51.279Z,29.06
2022-09-03T11:21:24.830Z,28.98
2022-09-03T11:24:17.389Z,28.94
2022-09-03T11:26:52.677Z,28.77
2022-09-03T11:29:38.118Z,28.77
2022-09-03T11:32:19.001Z,28.30
2022-09-03T11:34:50.215Z,28.72
2022-09-03T11:37:22.728Z,28.88
2022-09-03T11:40:12.288Z,28.90
2022-09-03T11:42:42.375Z,28.81
2022-09-03T11:45:14.316Z,28.67
2022-09-03T11:47:44.606Z,28.78
2022-09-03T11:50:28.288Z,28.56
2022-09-03T11:53:10.297Z,28.46
2022-09-03T11:55:57.078Z,28.34
2022-09-03T11:58:34.816Z,28.15
2022-09-03T12:01:16.417Z,28.45
2022-09-03T12:03:51.574Z,28.97
2022-09-03T12:06:36.656Z,29.26
2022-09-03T12:09:35.800Z,29.78
2022-09-03T12:12:28.073Z,30.23
2022-09-03T12:15:30.133Z,30.37
2022-09-03T12:18:22.566Z,30.15
2022-09-03T12:20:57.475Z,30.49
2022-09-03T12:23:33.570Z,30.69
2022-09-03T12:26:06.159Z,30.80
2022-09-03T12:28:44.313Z,30.40
2022-09-03T12:31:25.596Z,30.14
2022-09-03T12:33:55.557Z,30.05
2022-09-03T12:36:24.179Z,30.10
2022-09-03T12:39:11.975Z,29.91
2022-09-03T12:42:02.253Z,29.31
2022-09-03T12:44:41.144Z,29.14
2022-09-03T12:50:14.358Z,29.81
2022-09-03T12:53:10.937Z,30.55
2022-09-03T12:55:48.057Z,30.75
2022-09-03T12:58:19.018Z,30.76
2022-09-03T13:01:21.263Z,30.50
2022-09-03T13:04:19.109Z,30.43
2022-09-03T13:07:05.792Z,30.01
2022-09-03T13:09:38.024Z,30.05
2022-09-03T13:12:07.341Z,29.93
2022-09-03T13:14:47.268Z,29.37
2022-09-03T13:17:38.682Z,29.09
2022-09-03T13:20:40.465Z,29.15
2022-09-03T13:23:34.470Z,29.43
2022-09-03T13:26:08.627Z,29.55
2022-09-03T13:28:58.375Z,29.52
2022-09-03T13:31:50.663Z,29.17
2022-09-03T13:34:40.158Z,28.85
2022-09-03T13:37:17.470Z,28.60
2022-09-03T13:40:00.349Z,28.94
2022-09-03T13:42:42.656Z,28.67
2022-09-03T13:45:32.661Z,28.41
2022-09-03T13:48:28.548Z,27.99
2022-09-03T13:51:04.361Z,27.88
2022-09-03T13:54:30.986Z,27.94
2022-09-03T13:57:34.423Z,28.91
2022-09-03T14:00:10.140Z,29.63
2022-09-03T14:03:07.668Z,29.98
2022-09-03T14:05:43.935Z,29.67
2022-09-03T14:08:55.391Z,29.12
2022-09-03T14:11:58.812Z,29.08
2022-09-03T14:14:52.692Z,29.02
2022-09-03T14:17:46.527Z,29.07
2022-09-03T14:20:41.378Z,28.60
2022-09-03T14:23:44.828Z,28.33
2022-09-03T14:26:38.491Z,28.01
2022-09-03T14:29:14.186Z,27.77
2022-09-03T14:32:13.255Z,27.74
2022-09-03T14:34:50.635Z,27.88
2022-09-03T14:37:37.651Z,28.04
2022-09-03T14:40:19.089Z,28.08
2022-09-03T14:42:47.766Z,28.12
2022-09-03T14:45:52.655Z,28.09
2022-09-03T14:48:23.616Z,28.02
2022-09-03T14:51:11.079Z,27.85
2022-09-03T14:54:16.054Z,27.78
2022-09-03T14:57:01.041Z,27.70
2022-09-03T15:00:07.075Z,27.53
2022-09-03T15:02:35.301Z,27.33
2022-09-03T15:05:41.318Z,27.22
2022-09-03T15:08:23.586Z,27.09
2022-09-03T15:10:59.178Z,27.06
2022-09-03T15:14:18.762Z,26.83
2022-09-03T15:17:12.854Z,26.89
2022-09-03T15:20:05.220Z,26.99
2022-09-03T15:23:02.856Z,27.01
2022-09-03T15:25:54.246Z,27.00
2022-09-03T15:28:59.788Z,27.02
2022-09-03T15:31:28.029Z,26.81
2022-09-03T15:34:33.884Z,26.61
2022-09-03T15:37:09.904Z,26.42
2022-09-03T15:39:42.369Z,26.47
2022-09-03T15:42:27.352Z,26.46
2022-09-03T15:45:42.462Z,26.41
2022-09-03T15:48:43.338Z,26.32
2022-09-03T15:51:30.164Z,26.19
2022-09-03T15:54:09.033Z,26.15
2022-09-03T15:57:11.997Z,26.10
2022-09-03T16:00:09.223Z,26.00
2022-09-03T16:02:49.299Z,25.97
2022-09-03T16:05:24.523Z,25.93
2022-09-03T16:08:10.959Z,25.84
2022-09-03T16:10:57.123Z,25.85
2022-09-03T16:13:49.614Z,25.90
2022-09-03T16:16:33.081Z,25.95
2022-09-03T16:19:39.117Z,25.96
2022-09-03T16:22:37.568Z,25.93
2022-09-03T16:25:13.510Z,25.91
2022-09-03T16:28:10.201Z,25.89
2022-09-03T16:30:40.983Z,25.88
2022-09-03T16:33:24.739Z,25.90
2022-09-03T16:36:11.341Z,25.95
2022-09-03T16:39:06.816Z,26.02
2022-09-03T16:41:50.013Z,25.97
2022-09-03T16:44:34.258Z,26.00
2022-09-03T16:47:19.110Z,26.00
2022-09-03T16:50:06.414Z,25.88
2022-09-03T16:53:02.256Z,25.70
2022-09-03T16:55:39.510Z,25.65
2022-09-03T16:58:34.739Z,25.53
2022-09-03T17:01:13.370Z,25.47
2022-09-03T17:03:44.695Z,25.35
2022-09-03T17:06:26.459Z,25.32
2022-09-03T17:09:16.108Z,25.21
2022-09-03T17:12:35.858Z,25.17
2022-09-03T17:15:33.443Z,25.12
2022-09-03T17:18:21.793Z,25.05
2022-09-03T17:20:59.028Z,24.96
2022-09-03T17:23:47.440Z,24.90
2022-09-03T17:26:55.503Z,24.86
2022-09-03T17:29:36.597Z,24.83
2022-09-03T17:32:13.439Z,24.74
2022-09-03T17:34:44.321Z,24.76
2022-09-03T17:37:39.771Z,24.68
2022-09-03T17:40:44.039Z,24.59
2022-09-03T17:44:03.494Z,24.59
2022-09-03T17:46:42.608Z,24.53
2022-09-03T17:49:29.603Z,24.49
2022-09-03T17:52:13.231Z,24.44
2022-09-03T17:54:45.671Z,24.46
2022-09-03T17:57:38.098Z,24.42
2022-09-03T18:00:21.207Z,24.34
2022-09-03T18:03:13.759Z,24.34
2022-09-03T18:05:54.807Z,24.31
2022-09-03T18:08:48.412Z,24.22
2022-09-03T18:11:30.359Z,24.16
2022-09-03T18:14:25.001Z,24.12
2022-09-03T18:16:59.320Z,24.09
2022-09-03T18:19:58.108Z,24.12
2022-09-03T18:23:10.896Z,24.15
2022-09-03T18:26:02.828Z,24.08
2022-09-03T18:28:57.518Z,23.90
2022-09-03T18:31:46.633Z,23.75
2022-09-03T18:34:33.580Z,23.54
2022-09-03T18:37:20.414Z,23.47
2022-09-03T18:40:07.040Z,23.42
2022-09-03T18:43:21.210Z,23.43
2022-09-03T18:49:46.500Z,23.28
2022-09-03T18:52:54.968Z,23.22
2022-09-03T18:56:23.390Z,23.23
2022-09-03T18:59:28.823Z,23.19
2022-09-03T19:02:15.473Z,23.20
2022-09-03T19:05:40.109Z,23.16
2022-09-03T19:08:36.355Z,23.11
2022-09-03T19:11:54.932Z,23.08
2022-09-03T19:14:49.671Z,23.00
2022-09-03T19:17:45.226Z,23.01
2022-09-03T19:20:49.302Z,23.06
2022-09-03T19:23:35.925Z,23.04
2022-09-03T19:26:52.574Z,23.05
2022-09-03T19:30:06.349Z,23.02
2022-09-03T19:33:13.941Z,23.01
2022-09-03T19:36:28.510Z,22.95
2022-09-03T19:39:29.371Z,22.90
2022-09-03T19:42:34.502Z,22.91
2022-09-03T19:45:53.553Z,22.83
2022-09-03T19:49:10.567Z,22.78
2022-09-03T19:52:09.741Z,22.74
2022-09-03T19:54:57.465Z,22.69
2022-09-03T19:57:47.155Z,22.65
2022-09-03T20:00:34.561Z,22.62
2022-09-03T20:03:23.731Z,22.55
2022-09-03T20:06:11.973Z,22.53
2022-09-03T20:09:02.652Z,22.50
2022-09-03T20:11:31.564Z,22.46
2022-09-03T20:14:15.900Z,22.41
2022-09-03T20:17:02.287Z,22.38
2022-09-03T20:19:41.709Z,22.40
2022-09-03T20:22:09.964Z,22.34
2022-09-03T20:24:59.586Z,22.29
2022-09-03T20:27:48.106Z,22.28
2022-09-03T20:30:20.112Z,22.21
2022-09-03T20:33:28.332Z,22.14
2022-09-03T20:36:15.141Z,22.13
2022-09-03T20:38:59.676Z,22.06
2022-09-03T20:41:41.004Z,22.08
2022-09-03T20:44:48.864Z,22.02
2022-09-03T20:47:45.090Z,21.98
2022-09-03T20:50:28.356Z,21.99
2022-09-03T20:53:02.094Z,21.95
2022-09-03T20:55:44.613Z,21.94
2022-09-03T20:58:27.816Z,21.88
2022-09-03T21:01:07.114Z,21.87
2022-09-03T21:04:02.353Z,21.84
2022-09-03T21:06:53.896Z,21.79
2022-09-03T21:09:42.700Z,21.77
2022-09-03T21:12:32.444Z,21.76
2022-09-03T21:15:39.700Z,21.70
2022-09-03T21:18:24.416Z,21.59
2022-09-03T21:21:09.649Z,21.60
2022-09-03T21:23:44.980Z,21.54
2022-09-03T21:26:21.465Z,21.52
2022-09-03T21:29:13.124Z,21.51
2022-09-03T21:31:48.450Z,21.58
2022-09-03T21:34:37.089Z,21.67
2022-09-03T21:37:06.519Z,21.79
2022-09-03T21:39:56.055Z,21.78
2022-09-03T21:42:42.162Z,21.81
2022-09-03T21:45:25.388Z,21.82
2022-09-03T21:48:10.051Z,21.81
2022-09-03T21:51:00.181Z,21.79
2022-09-03T21:54:09.265Z,21.81
2022-09-03T21:56:49.424Z,21.78
2022-09-03T21:59:26.687Z,21.76
2022-09-03T22:02:03.041Z,21.77
2022-09-03T22:04:31.738Z,21.70
2022-09-03T22:07:26.167Z,21.63
2022-09-03T22:10:20.227Z,21.54
2022-09-03T22:13:09.365Z,21.51
2022-09-03T22:15:38.966Z,21.44
2022-09-03T22:18:29.417Z,21.40
2022-09-03T22:21:28.717Z,21.36
2022-09-03T22:24:24.615Z,21.28
2022-09-03T22:27:03.648Z,21.22
2022-09-03T22:29:57.367Z,21.15
2022-09-03T22:32:55.956Z,21.12
2022-09-03T22:35:26.996Z,21.09
2022-09-03T22:38:20.899Z,21.06
2022-09-03T22:40:59.123Z,21.01
2022-09-03T22:44:02.311Z,20.96
2022-09-03T22:46:54.134Z,20.86
2022-09-03T22:49:41.586Z,20.82
2022-09-03T22:52:34.798Z,20.86
2022-09-03T22:55:14.690Z,20.88
2022-09-03T22:57:54.818Z,20.73
2022-09-03T23:00:23.456Z,20.70
2022-09-03T23:03:08.711Z,20.67
2022-09-03T23:05:41.138Z,20.64
2022-09-03T23:08:14.135Z,20.66
2022-09-03T23:11:03.975Z,20.62
2022-09-03T23:13:42.086Z,20.62
2022-09-03T23:16:13.595Z,20.61
2022-09-03T23:18:45.715Z,20.64
2022-09-03T23:21:47.473Z,20.67
2022-09-03T23:24:31.089Z,20.83
2022-09-03T23:27:00.659Z,20.84
2022-09-03T23:29:45.988Z,20.81
2022-09-03T23:32:15.075Z,20.76
2022-09-03T23:34:43.307Z,20.71
2022-09-03T23:37:32.294Z,20.70
2022-09-03T23:40:37.462Z,20.68
2022-09-03T23:43:13.732Z,20.67
2022-09-03T23:46:05.209Z,20.49
2022-09-03T23:48:37.689Z,20.20
2022-09-03T23:51:24.296Z,20.12
2022-09-03T23:53:58.024Z,20.04
2022-09-03T23:56:45.618Z,20.03
2022-09-03T23:59:43.895Z,20.04
